createdAt,value
2018-08-16T00:02:40.539Z,6.43
2018-08-16T00:07:37.934Z,6.63
2018-08-16T00:12:35.326Z,9.40
2018-08-16T00:17:32.739Z,6.20
2018-08-16T00:22:30.148Z,6.73
2018-08-16T00:27:27.499Z,6.50
2018-08-16T00:32:25.370Z,5.73
2018-08-16T00:37:23.312Z,9.73
2018-08-16T00:42:20.719Z,6.33
2018-08-16T00:47:18.136Z,6.70
2018-08-16T00:52:15.512Z,6.40
2018-08-16T00:57:12.917Z,6.90
2018-08-16T01:02:10.327Z,8.67
2018-08-16T01:07:07.747Z,5.63
2018-08-16T01:12:05.176Z,7.00
2018-08-16T01:17:02.675Z,6.90
2018-08-16T01:22:00.140Z,7.17
2018-08-16T01:26:57.531Z,7.90
2018-08-16T01:31:54.981Z,7.43
2018-08-16T01:36:52.447Z,8.73
2018-08-16T01:41:49.899Z,7.03
2018-08-16T01:46:49.274Z,7.60
2018-08-16T01:51:48.438Z,9.13
2018-08-16T01:56:46.892Z,9.17
2018-08-16T02:01:44.311Z,8.97
2018-08-16T02:06:41.739Z,8.60
2018-08-16T02:11:39.163Z,7.90
2018-08-16T02:16:37.265Z,9.30
2018-08-16T02:21:35.035Z,7.87
2018-08-16T02:26:32.459Z,8.00
2018-08-16T02:31:30.067Z,9.93
2018-08-16T02:36:27.483Z,11.07
2018-08-16T02:41:24.912Z,9.27
2018-08-16T02:46:22.367Z,9.83
2018-08-16T02:51:19.776Z,14.73
2018-08-16T02:56:17.159Z,9.50
2018-08-16T03:01:14.571Z,11.20
2018-08-16T03:06:12.078Z,10.77
2018-08-16T03:11:09.461Z,10.50
2018-08-16T03:16:07.038Z,9.20
2018-08-16T03:21:04.575Z,9.47
2018-08-16T03:26:02.022Z,13.40
2018-08-16T03:30:59.499Z,10.60
2018-08-16T03:35:56.951Z,12.23
2018-08-16T03:40:54.440Z,11.13
2018-08-16T03:45:53.811Z,10.63
2018-08-16T03:50:51.264Z,12.57
2018-08-16T03:55:48.767Z,13.33
2018-08-16T04:00:46.228Z,11.70
2018-08-16T04:05:43.671Z,11.80
2018-08-16T04:10:41.120Z,11.40
2018-08-16T04:15:38.600Z,12.23
2018-08-16T04:20:36.081Z,20.37
2018-08-16T04:25:33.517Z,12.40
2018-08-16T04:30:30.921Z,13.07
2018-08-16T04:35:28.509Z,14.00
2018-08-16T04:40:25.935Z,18.40
2018-08-16T04:45:23.390Z,13.13
2018-08-16T04:50:21.452Z,15.47
2018-08-16T04:55:18.891Z,15.63
2018-08-16T05:00:16.375Z,13.80
2018-08-16T05:05:13.830Z,15.40
2018-08-16T05:10:11.281Z,19.73
2018-08-16T05:15:11.118Z,15.30
2018-08-16T05:20:12.130Z,18.83
2018-08-16T05:25:09.675Z,25.23
2018-08-16T05:30:09.611Z,21.23
2018-08-16T05:35:07.250Z,17.60
2018-08-16T05:40:06.426Z,19.47
2018-08-16T05:45:04.118Z,17.03
2018-08-16T05:50:02.626Z,21.90
2018-08-16T05:55:00.055Z,16.80
2018-08-16T05:59:57.503Z,17.03
2018-08-16T06:04:54.926Z,16.37
2018-08-16T06:09:52.336Z,17.43
2018-08-16T06:14:49.779Z,19.60
2018-08-16T06:19:48.249Z,16.73
2018-08-16T06:24:45.666Z,20.87
2018-08-16T06:29:43.124Z,16.07
2018-08-16T06:34:40.668Z,18.80
2018-08-16T06:39:38.114Z,15.43
2018-08-16T06:44:35.553Z,14.23
2018-08-16T06:49:40.138Z,10.03
2018-08-16T06:54:37.615Z,10.13
2018-08-16T06:59:35.071Z,11.03
2018-08-16T07:04:32.538Z,10.67
2018-08-16T07:09:29.974Z,11.27
2018-08-16T07:14:28.002Z,9.70
2018-08-16T07:19:31.522Z,9.77
2018-08-16T07:24:29.008Z,12.27
2018-08-16T07:29:26.468Z,9.57
2018-08-16T07:34:23.894Z,10.73
2018-08-16T07:39:21.374Z,10.20
2018-08-16T07:44:18.814Z,15.23
2018-08-16T07:49:21.880Z,10.07
2018-08-16T07:54:19.408Z,9.77
2018-08-16T07:59:16.811Z,10.90
2018-08-16T08:04:14.286Z,10.60
2018-08-16T08:09:11.921Z,10.13
2018-08-16T08:14:09.227Z,9.67
2018-08-16T08:19:09.590Z,9.37
2018-08-16T08:24:07.066Z,10.17
2018-08-16T08:29:04.487Z,8.37
2018-08-16T08:34:01.943Z,10.40
2018-08-16T08:38:59.402Z,8.47
2018-08-16T08:44:07.063Z,7.00
2018-08-16T08:49:07.673Z,13.93
2018-08-16T08:54:47.029Z,7.80
2018-08-16T08:59:44.474Z,7.47
2018-08-16T09:04:41.979Z,7.80
2018-08-16T09:10:49.979Z,6.47
2018-08-16T09:15:49.543Z,9.10
2018-08-16T09:20:46.999Z,9.70
2018-08-16T09:25:44.413Z,3.60
2018-08-16T09:30:53.187Z,4.50
2018-08-16T09:35:50.657Z,4.90
2018-08-16T09:40:48.107Z,7.83
2018-08-16T09:47:11.156Z,5.07
2018-08-16T09:52:09.455Z,7.23
2018-08-16T09:57:08.803Z,4.00
2018-08-16T10:02:07.566Z,3.43
2018-08-16T10:07:05.015Z,4.80
2018-08-16T10:12:02.850Z,4.77
2018-08-16T10:17:00.279Z,5.60
2018-08-16T10:21:57.994Z,10.93
2018-08-16T10:26:55.514Z,16.93
2018-08-16T10:31:52.949Z,10.57
2018-08-16T10:36:50.407Z,4.83
2018-08-16T10:41:47.858Z,3.47
2018-08-16T10:46:45.335Z,11.17
2018-08-16T10:51:43.663Z,8.10
2018-08-16T10:56:41.107Z,5.40
2018-08-16T11:01:38.682Z,5.83
2018-08-16T11:06:36.157Z,4.10
2018-08-16T11:11:33.707Z,4.87
2018-08-16T11:16:31.152Z,6.30
2018-08-16T11:21:28.586Z,4.87
2018-08-16T11:26:26.035Z,4.37
2018-08-16T11:31:23.475Z,5.37
2018-08-16T11:36:20.882Z,4.17
2018-08-16T11:41:18.342Z,13.50
2018-08-16T11:46:15.755Z,8.13
2018-08-16T11:51:13.172Z,4.73
2018-08-16T11:56:10.600Z,5.63
2018-08-16T12:01:08.196Z,7.90
2018-08-16T12:06:05.787Z,8.00
2018-08-16T12:11:03.241Z,3.70
2018-08-16T12:16:00.687Z,6.63
2018-08-16T12:20:58.240Z,5.70
2018-08-16T12:25:55.656Z,6.00
2018-08-16T12:30:53.115Z,4.00
2018-08-16T12:35:50.595Z,3.57
2018-08-16T12:40:50.109Z,4.50
2018-08-16T12:45:45.514Z,5.80
2018-08-16T12:50:49.584Z,3.73
2018-08-16T12:55:47.017Z,4.43
2018-08-16T13:00:44.443Z,8.50
2018-08-16T13:05:41.932Z,3.43
2018-08-16T13:10:39.344Z,5.03
2018-08-16T13:15:36.874Z,4.57
2018-08-16T13:20:34.297Z,3.90
2018-08-16T13:25:31.708Z,5.13
2018-08-16T13:30:29.173Z,3.63
2018-08-16T13:35:26.612Z,3.53
2018-08-16T13:40:24.055Z,12.03
2018-08-16T13:45:21.522Z,7.50
2018-08-16T13:50:19.436Z,6.10
2018-08-16T13:55:17.479Z,4.73
2018-08-16T14:00:14.883Z,3.47
2018-08-16T14:05:12.342Z,3.40
2018-08-16T14:10:09.846Z,2.97
2018-08-16T14:15:07.739Z,2.87
2018-08-16T14:20:06.721Z,4.70
2018-08-16T14:25:04.991Z,5.23
2018-08-16T14:30:02.499Z,2.90
2018-08-16T14:34:59.913Z,3.47
2018-08-16T14:39:57.339Z,9.50
2018-08-16T14:44:54.787Z,3.67
2018-08-16T14:49:53.396Z,5.43
2018-08-16T14:54:50.807Z,3.73
2018-08-16T14:59:48.253Z,3.17
2018-08-16T15:04:45.686Z,2.77
2018-08-16T15:09:43.102Z,3.73
2018-08-16T15:14:40.528Z,2.87
2018-08-16T15:19:41.812Z,3.70
2018-08-16T15:24:39.335Z,2.43
2018-08-16T15:29:36.763Z,3.20
2018-08-16T15:34:34.244Z,4.80
2018-08-16T15:39:31.660Z,3.50
2018-08-16T15:44:29.530Z,4.90
2018-08-16T15:49:31.018Z,4.33
2018-08-16T15:54:28.573Z,6.27
2018-08-16T15:59:25.996Z,5.00
2018-08-16T16:04:23.412Z,3.43
2018-08-16T16:09:24.483Z,12.90
2018-08-16T16:14:22.768Z,7.40
2018-08-16T16:19:28.610Z,5.10
2018-08-16T16:24:26.199Z,5.00
2018-08-16T16:29:23.640Z,6.67
2018-08-16T16:34:21.081Z,7.40
2018-08-16T16:39:18.551Z,6.67
2018-08-16T16:44:16.009Z,10.50
2018-08-16T16:49:25.514Z,7.40
2018-08-16T16:54:23.062Z,5.77
2018-08-16T16:59:20.522Z,10.13
2018-08-16T17:04:17.943Z,7.30
2018-08-16T17:09:15.358Z,8.50
2018-08-16T17:14:12.924Z,9.50
2018-08-16T17:19:12.557Z,8.40
2018-08-16T17:24:10.062Z,7.53
2018-08-16T17:29:07.576Z,9.63
2018-08-16T17:34:05.013Z,8.97
2018-08-16T17:39:02.699Z,8.70
2018-08-16T17:44:00.108Z,6.83
2018-08-16T17:48:57.566Z,8.50
2018-08-16T17:53:55.791Z,8.50
2018-08-16T17:58:53.274Z,10.17
2018-08-16T18:03:50.725Z,8.63
2018-08-16T18:08:48.161Z,8.97
2018-08-16T18:13:45.551Z,10.67
2018-08-16T18:18:43.010Z,8.87
2018-08-16T18:23:40.429Z,11.73
2018-08-16T18:28:37.876Z,8.27
2018-08-16T18:33:35.299Z,9.10
2018-08-16T18:38:32.710Z,9.40
2018-08-16T18:43:30.152Z,8.50
2018-08-16T18:48:27.603Z,19.73
2018-08-16T18:53:24.977Z,9.20
2018-08-16T18:58:22.422Z,13.30
2018-08-16T19:03:19.856Z,13.47
2018-08-16T19:08:17.312Z,21.80
2018-08-16T19:13:14.779Z,9.03
2018-08-16T19:18:12.194Z,16.20
2018-08-16T19:23:09.621Z,13.00
2018-08-16T19:28:07.047Z,12.90
2018-08-16T19:33:04.471Z,14.23
2018-08-16T19:38:01.863Z,17.20
2018-08-16T19:42:59.255Z,18.73
2018-08-16T19:47:56.719Z,13.00
2018-08-16T19:52:54.063Z,14.07
2018-08-16T19:57:51.476Z,12.77
2018-08-16T20:02:48.900Z,18.13
2018-08-16T20:07:46.292Z,10.93
2018-08-16T20:12:43.679Z,12.17
2018-08-16T20:17:41.103Z,10.57
2018-08-16T20:22:38.498Z,14.20
2018-08-16T20:27:35.915Z,11.53
2018-08-16T20:32:33.323Z,14.40
2018-08-16T20:37:30.758Z,10.57
2018-08-16T20:42:28.147Z,11.83
2018-08-16T20:47:25.583Z,12.67
2018-08-16T20:52:23.011Z,11.83
2018-08-16T20:57:20.447Z,14.90
2018-08-16T21:02:17.912Z,14.20
2018-08-16T21:07:15.291Z,12.10
2018-08-16T21:12:13.695Z,13.40
2018-08-16T21:17:11.199Z,13.67
2018-08-16T21:22:08.695Z,14.93
2018-08-16T21:27:06.122Z,13.30
2018-08-16T21:32:03.607Z,13.30
2018-08-16T21:37:01.025Z,13.13
2018-08-16T21:41:58.435Z,15.10
2018-08-16T21:46:55.902Z,17.33
2018-08-16T21:51:53.317Z,15.50
2018-08-16T21:56:50.746Z,13.73
2018-08-16T22:01:48.892Z,15.60
2018-08-16T22:07:13.244Z,15.70
2018-08-16T22:12:10.657Z,15.10
2018-08-16T22:17:08.055Z,17.53
2018-08-16T22:22:05.601Z,15.90
2018-08-16T22:27:03.059Z,14.63
2018-08-16T22:32:00.506Z,14.90
2018-08-16T22:36:57.898Z,16.53
2018-08-16T22:41:55.287Z,17.37
2018-08-16T22:46:52.693Z,20.10
2018-08-16T22:51:50.124Z,22.70
2018-08-16T22:56:47.516Z,15.17
2018-08-16T23:01:44.947Z,19.53
2018-08-16T23:06:42.389Z,22.17
2018-08-16T23:11:39.765Z,18.07
2018-08-16T23:16:39.285Z,16.50
2018-08-16T23:21:36.778Z,16.87
2018-08-16T23:26:34.175Z,18.40
2018-08-16T23:31:31.606Z,19.07
2018-08-16T23:36:28.998Z,15.90
2018-08-16T23:41:26.383Z,22.23
2018-08-16T23:46:23.792Z,21.40
2018-08-16T23:51:21.287Z,14.90
2018-08-16T23:56:18.678Z,16.30
